Yorkana, Pennsylvania
Current Conditions -  °F | °C
As of 9:56 AM on Friday 19 Dec 2014 (Local Time) from KMDT Reporting Station
Overcast Overcast  
Wind Chill: 28°   Ceiling: 3500
Heat Index: 36°   Visibility: 10mi
Dew Point: 25°   Wind: 10mph
Humidity: 64%   Direction: 300°WNW
Pressure: 30.12"   Gusts: NA
Location:  40.0152°N, 76.5974°W
Report Text: KMDT 191456Z 30009KT 10SM OVC035 02/M04 A3012 RMK AO2 SLP204 T00221039 51014
Loading
Personal Weather Stations






























Interactive Weather Map New forecast layout! Learn more

10-Day Weather Forecast

Advertisements
Track Severe Weather on mobile